METAR Data
IDs: Format: Raw Decoded Include TAF

Data at: 0141 UTC 25 Feb 2021

KRNT 250053Z 20003KT 10SM CLR 08/00 A3053 RMK AO2 SLP344 T00780000